sensor_id;sensor_type;location;lat;lon;timestamp;P1;durP1;ratioP1;P2;durP2;ratioP2
78141;SDS011;67393;52.620;13.482;2024-02-14T00:01:08;17.05;;;8.23;;
78141;SDS011;67393;52.620;13.482;2024-02-14T00:03:35;15.10;;;8.50;;
78141;SDS011;67393;52.620;13.482;2024-02-14T00:06:01;18.05;;;8.70;;
78141;SDS011;67393;52.620;13.482;2024-02-14T00:08:29;22.85;;;9.80;;
78141;SDS011;67393;52.620;13.482;2024-02-14T00:10:55;26.83;;;11.57;;
78141;SDS011;67393;52.620;13.482;2024-02-14T00:13:21;35.83;;;14.13;;
78141;SDS011;67393;52.620;13.482;2024-02-14T00:15:48;32.17;;;12.90;;
78141;SDS011;67393;52.620;13.482;2024-02-14T00:18:14;22.15;;;10.30;;
78141;SDS011;67393;52.620;13.482;2024-02-14T00:20:41;31.05;;;10.45;;
78141;SDS011;67393;52.620;13.482;2024-02-14T00:23:07;24.85;;;10.20;;
78141;SDS011;67393;52.620;13.482;2024-02-14T00:25:33;19.92;;;10.15;;
78141;SDS011;67393;52.620;13.482;2024-02-14T00:28:00;16.70;;;9.75;;
78141;SDS011;67393;52.620;13.482;2024-02-14T00:30:26;22.38;;;8.93;;
78141;SDS011;67393;52.620;13.482;2024-02-14T00:32:56;15.27;;;7.45;;
78141;SDS011;67393;52.620;13.482;2024-02-14T00:35:24;21.52;;;7.85;;
78141;SDS011;67393;52.620;13.482;2024-02-14T00:37:50;16.33;;;8.73;;
78141;SDS011;67393;52.620;13.482;2024-02-14T00:40:16;19.05;;;9.60;;
78141;SDS011;67393;52.620;13.482;2024-02-14T00:42:43;17.77;;;9.00;;
78141;SDS011;67393;52.620;13.482;2024-02-14T00:45:09;23.98;;;9.40;;
78141;SDS011;67393;52.620;13.482;2024-02-14T00:47:36;18.55;;;9.18;;
78141;SDS011;67393;52.620;13.482;2024-02-14T00:50:02;24.10;;;9.68;;
78141;SDS011;67393;52.620;13.482;2024-02-14T00:52:29;24.45;;;10.65;;
78141;SDS011;67393;52.620;13.482;2024-02-14T00:54:55;20.77;;;9.43;;
78141;SDS011;67393;52.620;13.482;2024-02-14T00:57:21;19.50;;;9.27;;
78141;SDS011;67393;52.620;13.482;2024-02-14T00:59:47;17.55;;;8.25;;
78141;SDS011;67393;52.620;13.482;2024-02-14T01:02:14;20.85;;;8.98;;
78141;SDS011;67393;52.620;13.482;2024-02-14T01:04:40;18.02;;;8.65;;
78141;SDS011;67393;52.620;13.482;2024-02-14T01:07:06;15.25;;;8.65;;
78141;SDS011;67393;52.620;13.482;2024-02-14T01:09:32;21.23;;;10.00;;
78141;SDS011;67393;52.620;13.482;2024-02-14T01:11:59;17.90;;;8.93;;
78141;SDS011;67393;52.620;13.482;2024-02-14T01:14:25;17.90;;;9.93;;
78141;SDS011;67393;52.620;13.482;2024-02-14T01:16:51;24.05;;;10.18;;
78141;SDS011;67393;52.620;13.482;2024-02-14T01:19:17;21.60;;;9.60;;
78141;SDS011;67393;52.620;13.482;2024-02-14T01:21:44;20.63;;;9.20;;
78141;SDS011;67393;52.620;13.482;2024-02-14T01:24:10;22.23;;;9.65;;
78141;SDS011;67393;52.620;13.482;2024-02-14T01:26:36;24.75;;;10.60;;
78141;SDS011;67393;52.620;13.482;2024-02-14T01:29:03;22.23;;;10.32;;
78141;SDS011;67393;52.620;13.482;2024-02-14T01:31:29;24.83;;;11.35;;
78141;SDS011;67393;52.620;13.482;2024-02-14T01:33:56;21.08;;;9.88;;
78141;SDS011;67393;52.620;13.482;2024-02-14T01:36:22;21.45;;;10.20;;
78141;SDS011;67393;52.620;13.482;2024-02-14T01:38:49;20.90;;;10.35;;
78141;SDS011;67393;52.620;13.482;2024-02-14T01:41:15;20.58;;;9.90;;
78141;SDS011;67393;52.620;13.482;2024-02-14T01:43:41;17.98;;;9.25;;
78141;SDS011;67393;52.620;13.482;2024-02-14T01:46:07;22.08;;;9.07;;
78141;SDS011;67393;52.620;13.482;2024-02-14T01:48:34;19.92;;;9.00;;
78141;SDS011;67393;52.620;13.482;2024-02-14T01:51:02;25.77;;;10.43;;
78141;SDS011;67393;52.620;13.482;2024-02-14T01:53:29;17.45;;;9.68;;
78141;SDS011;67393;52.620;13.482;2024-02-14T01:55:56;19.52;;;9.85;;
78141;SDS011;67393;52.620;13.482;2024-02-14T01:58:23;21.10;;;10.65;;
78141;SDS011;67393;52.620;13.482;2024-02-14T02:00:49;17.88;;;9.70;;
78141;SDS011;67393;52.620;13.482;2024-02-14T02:03:15;19.15;;;9.20;;
78141;SDS011;67393;52.620;13.482;2024-02-14T02:05:42;19.00;;;9.50;;
78141;SDS011;67393;52.620;13.482;2024-02-14T02:08:08;23.08;;;10.98;;
78141;SDS011;67393;52.620;13.482;2024-02-14T02:10:35;16.27;;;9.43;;
78141;SDS011;67393;52.620;13.482;2024-02-14T02:13:01;23.42;;;9.48;;
78141;SDS011;67393;52.620;13.482;2024-02-14T02:15:27;22.70;;;10.35;;
78141;SDS011;67393;52.620;13.482;2024-02-14T02:17:54;24.00;;;10.45;;
78141;SDS011;67393;52.620;13.482;2024-02-14T02:20:20;25.27;;;9.60;;
78141;SDS011;67393;52.620;13.482;2024-02-14T02:22:47;20.52;;;9.52;;
78141;SDS011;67393;52.620;13.482;2024-02-14T02:25:14;21.92;;;9.43;;
78141;SDS011;67393;52.620;13.482;2024-02-14T02:27:40;21.55;;;9.15;;
78141;SDS011;67393;52.620;13.482;2024-02-14T02:30:06;19.73;;;9.25;;
78141;SDS011;67393;52.620;13.482;2024-02-14T02:32:33;16.10;;;8.68;;
78141;SDS011;67393;52.620;13.482;2024-02-14T02:35:00;17.73;;;8.43;;
78141;SDS011;67393;52.620;13.482;2024-02-14T02:37:26;18.55;;;8.80;;
78141;SDS011;67393;52.620;13.482;2024-02-14T02:39:52;15.95;;;7.93;;
78141;SDS011;67393;52.620;13.482;2024-02-14T02:42:18;21.20;;;9.32;;
78141;SDS011;67393;52.620;13.482;2024-02-14T02:44:49;19.50;;;9.60;;
78141;SDS011;67393;52.620;13.482;2024-02-14T02:47:15;16.88;;;8.55;;
78141;SDS011;67393;52.620;13.482;2024-02-14T02:49:42;15.70;;;7.20;;
78141;SDS011;67393;52.620;13.482;2024-02-14T02:52:09;16.23;;;8.02;;
78141;SDS011;67393;52.620;13.482;2024-02-14T02:54:35;17.05;;;8.77;;
78141;SDS011;67393;52.620;13.482;2024-02-14T02:57:01;21.35;;;8.23;;
78141;SDS011;67393;52.620;13.482;2024-02-14T02:59:28;22.13;;;9.50;;
78141;SDS011;67393;52.620;13.482;2024-02-14T03:01:54;18.90;;;8.75;;
78141;SDS011;67393;52.620;13.482;2024-02-14T03:04:20;16.17;;;7.97;;
78141;SDS011;67393;52.620;13.482;2024-02-14T03:06:49;19.38;;;8.93;;
78141;SDS011;67393;52.620;13.482;2024-02-14T03:09:15;15.80;;;7.28;;
78141;SDS011;67393;52.620;13.482;2024-02-14T03:11:42;24.00;;;8.95;;
78141;SDS011;67393;52.620;13.482;2024-02-14T03:14:08;15.18;;;8.23;;
78141;SDS011;67393;52.620;13.482;2024-02-14T03:16:34;17.40;;;8.05;;
78141;SDS011;67393;52.620;13.482;2024-02-14T03:19:02;16.25;;;7.70;;
78141;SDS011;67393;52.620;13.482;2024-02-14T03:21:28;17.25;;;8.60;;
78141;SDS011;67393;52.620;13.482;2024-02-14T03:23:54;16.08;;;7.88;;
78141;SDS011;67393;52.620;13.482;2024-02-14T03:26:21;14.32;;;7.40;;
78141;SDS011;67393;52.620;13.482;2024-02-14T03:28:47;17.30;;;7.80;;
78141;SDS011;67393;52.620;13.482;2024-02-14T03:31:13;14.88;;;7.90;;
78141;SDS011;67393;52.620;13.482;2024-02-14T03:33:39;15.05;;;7.70;;
78141;SDS011;67393;52.620;13.482;2024-02-14T03:36:06;14.25;;;6.38;;
78141;SDS011;67393;52.620;13.482;2024-02-14T03:38:32;15.50;;;7.85;;
78141;SDS011;67393;52.620;13.482;2024-02-14T03:40:59;15.43;;;7.03;;
78141;SDS011;67393;52.620;13.482;2024-02-14T03:43:25;15.70;;;8.07;;
78141;SDS011;67393;52.620;13.482;2024-02-14T03:45:51;14.40;;;8.07;;
78141;SDS011;67393;52.620;13.482;2024-02-14T03:48:17;13.27;;;7.10;;
78141;SDS011;67393;52.620;13.482;2024-02-14T03:50:44;13.95;;;7.10;;
78141;SDS011;67393;52.620;13.482;2024-02-14T03:53:10;15.18;;;7.55;;
78141;SDS011;67393;52.620;13.482;2024-02-14T03:55:37;12.52;;;6.55;;
78141;SDS011;67393;52.620;13.482;2024-02-14T03:58:03;15.30;;;7.70;;
78141;SDS011;67393;52.620;13.482;2024-02-14T04:00:29;15.02;;;6.88;;
78141;SDS011;67393;52.620;13.482;2024-02-14T04:02:56;15.15;;;7.45;;
78141;SDS011;67393;52.620;13.482;2024-02-14T04:05:22;16.38;;;7.43;;
78141;SDS011;67393;52.620;13.482;2024-02-14T04:07:48;15.55;;;9.07;;
78141;SDS011;67393;52.620;13.482;2024-02-14T04:10:15;12.38;;;6.85;;
78141;SDS011;67393;52.620;13.482;2024-02-14T04:12:41;16.60;;;8.55;;
78141;SDS011;67393;52.620;13.482;2024-02-14T04:15:07;14.25;;;6.88;;
78141;SDS011;67393;52.620;13.482;2024-02-14T04:17:34;13.10;;;7.55;;
78141;SDS011;67393;52.620;13.482;2024-02-14T04:20:00;15.30;;;8.35;;
78141;SDS011;67393;52.620;13.482;2024-02-14T04:22:26;12.38;;;6.82;;
78141;SDS011;67393;52.620;13.482;2024-02-14T04:24:53;13.60;;;7.18;;
78141;SDS011;67393;52.620;13.482;2024-02-14T04:27:19;13.93;;;7.97;;
78141;SDS011;67393;52.620;13.482;2024-02-14T04:29:45;18.73;;;8.95;;
78141;SDS011;67393;52.620;13.482;2024-02-14T04:32:12;15.18;;;8.10;;
78141;SDS011;67393;52.620;13.482;2024-02-14T04:34:38;16.75;;;8.20;;
78141;SDS011;67393;52.620;13.482;2024-02-14T04:37:05;14.02;;;7.95;;
78141;SDS011;67393;52.620;13.482;2024-02-14T04:39:31;14.55;;;7.65;;
78141;SDS011;67393;52.620;13.482;2024-02-14T04:41:58;16.38;;;7.97;;
78141;SDS011;67393;52.620;13.482;2024-02-14T04:44:28;13.85;;;7.32;;
78141;SDS011;67393;52.620;13.482;2024-02-14T04:46:55;16.38;;;8.15;;
78141;SDS011;67393;52.620;13.482;2024-02-14T04:49:21;12.60;;;7.07;;
78141;SDS011;67393;52.620;13.482;2024-02-14T04:51:47;14.15;;;7.43;;
78141;SDS011;67393;52.620;13.482;2024-02-14T04:54:13;15.48;;;8.45;;
78141;SDS011;67393;52.620;13.482;2024-02-14T04:56:40;14.60;;;7.60;;
78141;SDS011;67393;52.620;13.482;2024-02-14T04:59:06;15.38;;;7.88;;
78141;SDS011;67393;52.620;13.482;2024-02-14T05:01:32;12.10;;;6.75;;
78141;SDS011;67393;52.620;13.482;2024-02-14T05:03:59;19.92;;;7.82;;
78141;SDS011;67393;52.620;13.482;2024-02-14T05:06:25;13.85;;;7.50;;
78141;SDS011;67393;52.620;13.482;2024-02-14T05:08:51;15.20;;;7.65;;
78141;SDS011;67393;52.620;13.482;2024-02-14T05:11:17;16.38;;;7.18;;
78141;SDS011;67393;52.620;13.482;2024-02-14T05:13:44;16.92;;;7.88;;
78141;SDS011;67393;52.620;13.482;2024-02-14T05:16:10;15.02;;;8.13;;
78141;SDS011;67393;52.620;13.482;2024-02-14T05:18:37;14.27;;;7.80;;
78141;SDS011;67393;52.620;13.482;2024-02-14T05:21:06;14.73;;;7.60;;
78141;SDS011;67393;52.620;13.482;2024-02-14T05:23:32;14.88;;;7.82;;
78141;SDS011;67393;52.620;13.482;2024-02-14T05:25:59;17.70;;;7.75;;
78141;SDS011;67393;52.620;13.482;2024-02-14T05:28:25;17.20;;;7.70;;
78141;SDS011;67393;52.620;13.482;2024-02-14T05:30:51;14.80;;;7.93;;
78141;SDS011;67393;52.620;13.482;2024-02-14T05:33:18;21.00;;;7.80;;
78141;SDS011;67393;52.620;13.482;2024-02-14T05:35:44;19.38;;;7.57;;
78141;SDS011;67393;52.620;13.482;2024-02-14T05:38:10;14.70;;;7.60;;
78141;SDS011;67393;52.620;13.482;2024-02-14T05:40:36;19.90;;;7.53;;
78141;SDS011;67393;52.620;13.482;2024-02-14T05:43:03;27.15;;;8.35;;
78141;SDS011;67393;52.620;13.482;2024-02-14T05:45:29;19.67;;;9.95;;
78141;SDS011;67393;52.620;13.482;2024-02-14T05:47:55;17.00;;;8.68;;
78141;SDS011;67393;52.620;13.482;2024-02-14T05:50:22;19.63;;;8.65;;
78141;SDS011;67393;52.620;13.482;2024-02-14T05:52:48;13.23;;;7.32;;
78141;SDS011;67393;52.620;13.482;2024-02-14T05:55:14;16.98;;;8.30;;
78141;SDS011;67393;52.620;13.482;2024-02-14T05:57:41;14.32;;;8.05;;
78141;SDS011;67393;52.620;13.482;2024-02-14T06:00:07;12.43;;;7.57;;
78141;SDS011;67393;52.620;13.482;2024-02-14T06:02:34;13.15;;;7.03;;
78141;SDS011;67393;52.620;13.482;2024-02-14T06:05:00;15.38;;;8.30;;
78141;SDS011;67393;52.620;13.482;2024-02-14T06:07:26;13.85;;;7.65;;
78141;SDS011;67393;52.620;13.482;2024-02-14T06:09:52;13.18;;;7.65;;
78141;SDS011;67393;52.620;13.482;2024-02-14T06:12:19;14.00;;;7.95;;
78141;SDS011;67393;52.620;13.482;2024-02-14T06:14:48;14.88;;;7.95;;
78141;SDS011;67393;52.620;13.482;2024-02-14T06:17:14;17.77;;;8.57;;
78141;SDS011;67393;52.620;13.482;2024-02-14T06:19:40;12.40;;;7.32;;
78141;SDS011;67393;52.620;13.482;2024-02-14T06:22:07;15.32;;;8.80;;
78141;SDS011;67393;52.620;13.482;2024-02-14T06:24:33;15.70;;;7.63;;
78141;SDS011;67393;52.620;13.482;2024-02-14T06:26:59;14.48;;;7.03;;
78141;SDS011;67393;52.620;13.482;2024-02-14T06:29:25;15.43;;;7.75;;
78141;SDS011;67393;52.620;13.482;2024-02-14T06:31:52;16.55;;;7.75;;
78141;SDS011;67393;52.620;13.482;2024-02-14T06:34:18;12.95;;;7.13;;
78141;SDS011;67393;52.620;13.482;2024-02-14T06:36:46;12.68;;;7.03;;
78141;SDS011;67393;52.620;13.482;2024-02-14T06:39:12;18.00;;;7.32;;
78141;SDS011;67393;52.620;13.482;2024-02-14T06:41:38;15.60;;;7.50;;
78141;SDS011;67393;52.620;13.482;2024-02-14T06:44:05;19.55;;;7.18;;
78141;SDS011;67393;52.620;13.482;2024-02-14T06:46:31;15.50;;;7.65;;
78141;SDS011;67393;52.620;13.482;2024-02-14T06:48:57;12.27;;;6.28;;
78141;SDS011;67393;52.620;13.482;2024-02-14T06:51:24;15.10;;;6.35;;
78141;SDS011;67393;52.620;13.482;2024-02-14T06:53:50;11.80;;;6.55;;
78141;SDS011;67393;52.620;13.482;2024-02-14T06:56:16;15.82;;;6.63;;
78141;SDS011;67393;52.620;13.482;2024-02-14T06:58:42;15.88;;;6.35;;
78141;SDS011;67393;52.620;13.482;2024-02-14T07:01:09;13.80;;;7.00;;
78141;SDS011;67393;52.620;13.482;2024-02-14T07:03:35;15.00;;;6.05;;
78141;SDS011;67393;52.620;13.482;2024-02-14T07:06:01;12.90;;;7.55;;
78141;SDS011;67393;52.620;13.482;2024-02-14T07:08:28;13.57;;;6.65;;
78141;SDS011;67393;52.620;13.482;2024-02-14T07:10:54;10.88;;;5.80;;
78141;SDS011;67393;52.620;13.482;2024-02-14T07:13:21;17.05;;;7.38;;
78141;SDS011;67393;52.620;13.482;2024-02-14T07:15:47;14.15;;;6.68;;
78141;SDS011;67393;52.620;13.482;2024-02-14T07:18:13;14.00;;;6.45;;
78141;SDS011;67393;52.620;13.482;2024-02-14T07:20:40;13.85;;;6.30;;
78141;SDS011;67393;52.620;13.482;2024-02-14T07:23:06;12.55;;;6.20;;
78141;SDS011;67393;52.620;13.482;2024-02-14T07:25:32;15.18;;;5.78;;
78141;SDS011;67393;52.620;13.482;2024-02-14T07:27:58;10.38;;;5.60;;
78141;SDS011;67393;52.620;13.482;2024-02-14T07:30:25;15.55;;;5.78;;
78141;SDS011;67393;52.620;13.482;2024-02-14T07:32:51;9.80;;;5.20;;
78141;SDS011;67393;52.620;13.482;2024-02-14T07:35:18;8.38;;;5.13;;
78141;SDS011;67393;52.620;13.482;2024-02-14T07:37:44;12.55;;;6.13;;
78141;SDS011;67393;52.620;13.482;2024-02-14T07:40:10;12.98;;;7.40;;
78141;SDS011;67393;52.620;13.482;2024-02-14T07:42:37;10.63;;;5.72;;
78141;SDS011;67393;52.620;13.482;2024-02-14T07:45:04;11.55;;;5.10;;
78141;SDS011;67393;52.620;13.482;2024-02-14T07:47:30;14.88;;;6.72;;
78141;SDS011;67393;52.620;13.482;2024-02-14T07:49:57;12.65;;;6.03;;
78141;SDS011;67393;52.620;13.482;2024-02-14T07:52:23;12.32;;;6.35;;
78141;SDS011;67393;52.620;13.482;2024-02-14T07:54:52;17.42;;;7.00;;
78141;SDS011;67393;52.620;13.482;2024-02-14T07:57:19;10.85;;;6.10;;
78141;SDS011;67393;52.620;13.482;2024-02-14T07:59:45;11.07;;;6.00;;
78141;SDS011;67393;52.620;13.482;2024-02-14T08:02:11;11.10;;;5.78;;
78141;SDS011;67393;52.620;13.482;2024-02-14T08:04:37;12.20;;;5.22;;
78141;SDS011;67393;52.620;13.482;2024-02-14T08:07:04;12.77;;;6.22;;
78141;SDS011;67393;52.620;13.482;2024-02-14T08:09:30;10.10;;;5.00;;
78141;SDS011;67393;52.620;13.482;2024-02-14T08:11:57;10.55;;;5.72;;
78141;SDS011;67393;52.620;13.482;2024-02-14T08:14:23;10.65;;;4.93;;
78141;SDS011;67393;52.620;13.482;2024-02-14T08:16:49;9.90;;;6.45;;
78141;SDS011;67393;52.620;13.482;2024-02-14T08:19:16;11.35;;;5.13;;
78141;SDS011;67393;52.620;13.482;2024-02-14T08:21:42;11.85;;;6.03;;
78141;SDS011;67393;52.620;13.482;2024-02-14T08:24:08;12.32;;;5.70;;
78141;SDS011;67393;52.620;13.482;2024-02-14T08:26:35;11.32;;;6.13;;
78141;SDS011;67393;52.620;13.482;2024-02-14T08:29:01;15.60;;;6.28;;
78141;SDS011;67393;52.620;13.482;2024-02-14T08:31:27;16.58;;;5.95;;
78141;SDS011;67393;52.620;13.482;2024-02-14T08:33:54;11.43;;;5.93;;
78141;SDS011;67393;52.620;13.482;2024-02-14T08:36:20;11.68;;;6.15;;
78141;SDS011;67393;52.620;13.482;2024-02-14T08:38:47;10.93;;;5.75;;
78141;SDS011;67393;52.620;13.482;2024-02-14T08:41:14;11.77;;;6.18;;
78141;SDS011;67393;52.620;13.482;2024-02-14T08:43:40;10.25;;;5.82;;
78141;SDS011;67393;52.620;13.482;2024-02-14T08:46:10;9.75;;;6.05;;
78141;SDS011;67393;52.620;13.482;2024-02-14T08:48:36;11.93;;;5.70;;
78141;SDS011;67393;52.620;13.482;2024-02-14T08:51:03;10.13;;;5.68;;
78141;SDS011;67393;52.620;13.482;2024-02-14T08:53:29;10.90;;;5.70;;
78141;SDS011;67393;52.620;13.482;2024-02-14T08:55:55;9.80;;;5.53;;
78141;SDS011;67393;52.620;13.482;2024-02-14T08:58:22;10.70;;;5.63;;
78141;SDS011;67393;52.620;13.482;2024-02-14T09:00:48;12.52;;;5.20;;
78141;SDS011;67393;52.620;13.482;2024-02-14T09:03:23;10.35;;;5.30;;
78141;SDS011;67393;52.620;13.482;2024-02-14T09:05:50;14.18;;;4.43;;
78141;SDS011;67393;52.620;13.482;2024-02-14T09:08:16;7.90;;;4.47;;
78141;SDS011;67393;52.620;13.482;2024-02-14T09:10:42;12.65;;;5.45;;
78141;SDS011;67393;52.620;13.482;2024-02-14T09:13:09;15.38;;;5.57;;
78141;SDS011;67393;52.620;13.482;2024-02-14T09:15:35;11.40;;;5.25;;
78141;SDS011;67393;52.620;13.482;2024-02-14T09:18:01;8.93;;;4.75;;
78141;SDS011;67393;52.620;13.482;2024-02-14T09:20:28;8.63;;;4.65;;
78141;SDS011;67393;52.620;13.482;2024-02-14T09:22:54;8.60;;;4.72;;
78141;SDS011;67393;52.620;13.482;2024-02-14T09:25:20;10.10;;;4.68;;
78141;SDS011;67393;52.620;13.482;2024-02-14T09:27:47;9.05;;;5.10;;
78141;SDS011;67393;52.620;13.482;2024-02-14T09:30:13;9.95;;;4.47;;
78141;SDS011;67393;52.620;13.482;2024-02-14T09:32:57;8.30;;;4.65;;
78141;SDS011;67393;52.620;13.482;2024-02-14T09:35:23;12.80;;;4.80;;
78141;SDS011;67393;52.620;13.482;2024-02-14T09:37:50;8.90;;;4.85;;
78141;SDS011;67393;52.620;13.482;2024-02-14T09:40:16;12.50;;;5.03;;
78141;SDS011;67393;52.620;13.482;2024-02-14T09:42:51;10.15;;;4.75;;
78141;SDS011;67393;52.620;13.482;2024-02-14T09:45:19;10.98;;;4.75;;
78141;SDS011;67393;52.620;13.482;2024-02-14T09:47:51;9.13;;;4.65;;
78141;SDS011;67393;52.620;13.482;2024-02-14T09:50:17;9.55;;;5.03;;
78141;SDS011;67393;52.620;13.482;2024-02-14T09:52:45;11.48;;;5.47;;
78141;SDS011;67393;52.620;13.482;2024-02-14T09:55:12;10.60;;;4.97;;
78141;SDS011;67393;52.620;13.482;2024-02-14T09:57:38;13.88;;;5.50;;
78141;SDS011;67393;52.620;13.482;2024-02-14T10:00:07;12.13;;;5.07;;
78141;SDS011;67393;52.620;13.482;2024-02-14T10:02:33;9.05;;;5.10;;
78141;SDS011;67393;52.620;13.482;2024-02-14T10:05:00;11.50;;;5.60;;
78141;SDS011;67393;52.620;13.482;2024-02-14T10:07:26;9.27;;;4.78;;
78141;SDS011;67393;52.620;13.482;2024-02-14T10:09:53;8.55;;;5.28;;
78141;SDS011;67393;52.620;13.482;2024-02-14T10:12:19;8.80;;;4.43;;
78141;SDS011;67393;52.620;13.482;2024-02-14T10:14:46;11.95;;;5.32;;
78141;SDS011;67393;52.620;13.482;2024-02-14T10:17:18;12.05;;;4.85;;
78141;SDS011;67393;52.620;13.482;2024-02-14T10:19:54;7.90;;;4.45;;
78141;SDS011;67393;52.620;13.482;2024-02-14T10:22:20;6.20;;;3.72;;
78141;SDS011;67393;52.620;13.482;2024-02-14T10:24:47;10.90;;;3.88;;
78141;SDS011;67393;52.620;13.482;2024-02-14T10:27:13;9.82;;;4.25;;
78141;SDS011;67393;52.620;13.482;2024-02-14T10:29:41;11.90;;;4.20;;
78141;SDS011;67393;52.620;13.482;2024-02-14T10:32:07;8.02;;;4.22;;
78141;SDS011;67393;52.620;13.482;2024-02-14T10:34:33;7.50;;;4.50;;
78141;SDS011;67393;52.620;13.482;2024-02-14T10:37:01;5.38;;;2.65;;
78141;SDS011;67393;52.620;13.482;2024-02-14T10:39:28;6.85;;;4.03;;
78141;SDS011;67393;52.620;13.482;2024-02-14T10:41:55;9.38;;;4.60;;
78141;SDS011;67393;52.620;13.482;2024-02-14T10:44:21;9.70;;;4.13;;
78141;SDS011;67393;52.620;13.482;2024-02-14T10:46:48;6.25;;;3.80;;
78141;SDS011;67393;52.620;13.482;2024-02-14T10:49:14;5.60;;;3.80;;
78141;SDS011;67393;52.620;13.482;2024-02-14T10:51:42;8.93;;;3.63;;
78141;SDS011;67393;52.620;13.482;2024-02-14T10:54:12;5.93;;;3.60;;
78141;SDS011;67393;52.620;13.482;2024-02-14T10:56:40;11.88;;;3.85;;
78141;SDS011;67393;52.620;13.482;2024-02-14T10:59:07;6.75;;;3.50;;
78141;SDS011;67393;52.620;13.482;2024-02-14T11:01:34;5.70;;;2.90;;
78141;SDS011;67393;52.620;13.482;2024-02-14T11:04:02;6.32;;;3.67;;
78141;SDS011;67393;52.620;13.482;2024-02-14T11:06:29;5.63;;;3.50;;
78141;SDS011;67393;52.620;13.482;2024-02-14T11:09:01;8.43;;;3.45;;
78141;SDS011;67393;52.620;13.482;2024-02-14T11:11:28;10.85;;;3.22;;
78141;SDS011;67393;52.620;13.482;2024-02-14T11:13:54;8.52;;;4.05;;
78141;SDS011;67393;52.620;13.482;2024-02-14T11:16:25;4.85;;;3.80;;
78141;SDS011;67393;52.620;13.482;2024-02-14T11:18:51;7.82;;;2.92;;
78141;SDS011;67393;52.620;13.482;2024-02-14T11:21:18;5.75;;;3.15;;
78141;SDS011;67393;52.620;13.482;2024-02-14T11:23:53;10.32;;;3.70;;
78141;SDS011;67393;52.620;13.482;2024-02-14T11:26:20;7.38;;;3.40;;
78141;SDS011;67393;52.620;13.482;2024-02-14T11:28:46;11.85;;;3.47;;
78141;SDS011;67393;52.620;13.482;2024-02-14T11:31:12;7.43;;;3.17;;
78141;SDS011;67393;52.620;13.482;2024-02-14T11:33:42;8.60;;;3.72;;
78141;SDS011;67393;52.620;13.482;2024-02-14T11:36:08;5.00;;;3.58;;
78141;SDS011;67393;52.620;13.482;2024-02-14T11:38:35;9.52;;;3.63;;
78141;SDS011;67393;52.620;13.482;2024-02-14T11:41:02;9.68;;;4.13;;
78141;SDS011;67393;52.620;13.482;2024-02-14T11:43:28;8.93;;;3.45;;
78141;SDS011;67393;52.620;13.482;2024-02-14T11:45:54;7.68;;;3.97;;
78141;SDS011;67393;52.620;13.482;2024-02-14T11:48:20;6.97;;;3.60;;
78141;SDS011;67393;52.620;13.482;2024-02-14T11:50:47;9.70;;;3.72;;
78141;SDS011;67393;52.620;13.482;2024-02-14T11:53:14;4.95;;;3.08;;
78141;SDS011;67393;52.620;13.482;2024-02-14T11:55:41;7.82;;;4.60;;
78141;SDS011;67393;52.620;13.482;2024-02-14T11:58:07;6.28;;;3.47;;
78141;SDS011;67393;52.620;13.482;2024-02-14T12:00:34;5.30;;;3.97;;
78141;SDS011;67393;52.620;13.482;2024-02-14T12:03:00;6.50;;;3.72;;
78141;SDS011;67393;52.620;13.482;2024-02-14T12:05:26;7.22;;;4.35;;
78141;SDS011;67393;52.620;13.482;2024-02-14T12:07:53;8.40;;;4.15;;
78141;SDS011;67393;52.620;13.482;2024-02-14T12:10:19;7.63;;;3.35;;
78141;SDS011;67393;52.620;13.482;2024-02-14T12:12:45;8.77;;;4.28;;
78141;SDS011;67393;52.620;13.482;2024-02-14T12:15:12;11.55;;;4.03;;
78141;SDS011;67393;52.620;13.482;2024-02-14T12:17:38;8.45;;;4.07;;
78141;SDS011;67393;52.620;13.482;2024-02-14T12:20:05;5.82;;;3.75;;
78141;SDS011;67393;52.620;13.482;2024-02-14T12:22:31;7.75;;;4.18;;
78141;SDS011;67393;52.620;13.482;2024-02-14T12:24:58;9.65;;;3.88;;
78141;SDS011;67393;52.620;13.482;2024-02-14T12:27:24;10.50;;;4.30;;
78141;SDS011;67393;52.620;13.482;2024-02-14T12:29:51;9.50;;;4.60;;
78141;SDS011;67393;52.620;13.482;2024-02-14T12:32:17;9.65;;;4.32;;
78141;SDS011;67393;52.620;13.482;2024-02-14T12:34:43;7.20;;;3.85;;
78141;SDS011;67393;52.620;13.482;2024-02-14T12:37:10;8.13;;;4.28;;
78141;SDS011;67393;52.620;13.482;2024-02-14T12:39:37;10.93;;;4.70;;
78141;SDS011;67393;52.620;13.482;2024-02-14T12:42:06;6.05;;;2.80;;
78141;SDS011;67393;52.620;13.482;2024-02-14T12:44:33;7.60;;;4.13;;
78141;SDS011;67393;52.620;13.482;2024-02-14T12:46:59;9.55;;;3.83;;
78141;SDS011;67393;52.620;13.482;2024-02-14T12:49:25;11.93;;;3.63;;
78141;SDS011;67393;52.620;13.482;2024-02-14T12:51:51;6.20;;;3.90;;
78141;SDS011;67393;52.620;13.482;2024-02-14T12:54:18;9.23;;;4.38;;
78141;SDS011;67393;52.620;13.482;2024-02-14T12:56:44;6.75;;;4.10;;
78141;SDS011;67393;52.620;13.482;2024-02-14T12:59:14;8.73;;;4.13;;
78141;SDS011;67393;52.620;13.482;2024-02-14T13:01:42;9.93;;;3.80;;
78141;SDS011;67393;52.620;13.482;2024-02-14T13:04:09;8.73;;;4.72;;
78141;SDS011;67393;52.620;13.482;2024-02-14T13:06:35;6.95;;;3.85;;
78141;SDS011;67393;52.620;13.482;2024-02-14T13:09:02;6.97;;;4.05;;
78141;SDS011;67393;52.620;13.482;2024-02-14T13:11:28;9.38;;;4.28;;
78141;SDS011;67393;52.620;13.482;2024-02-14T13:13:54;11.05;;;4.35;;
78141;SDS011;67393;52.620;13.482;2024-02-14T13:16:20;7.70;;;3.90;;
78141;SDS011;67393;52.620;13.482;2024-02-14T13:18:47;9.43;;;4.20;;
78141;SDS011;67393;52.620;13.482;2024-02-14T13:21:13;8.13;;;4.35;;
78141;SDS011;67393;52.620;13.482;2024-02-14T13:23:39;9.35;;;4.78;;
78141;SDS011;67393;52.620;13.482;2024-02-14T13:26:06;7.70;;;4.13;;
78141;SDS011;67393;52.620;13.482;2024-02-14T13:28:32;7.22;;;3.70;;
78141;SDS011;67393;52.620;13.482;2024-02-14T13:30:58;10.05;;;3.72;;
78141;SDS011;67393;52.620;13.482;2024-02-14T13:33:25;6.00;;;2.92;;
78141;SDS011;67393;52.620;13.482;2024-02-14T13:35:51;5.95;;;4.15;;
78141;SDS011;67393;52.620;13.482;2024-02-14T13:38:18;9.73;;;4.63;;
78141;SDS011;67393;52.620;13.482;2024-02-14T13:40:44;6.72;;;4.30;;
78141;SDS011;67393;52.620;13.482;2024-02-14T13:43:10;9.38;;;4.85;;
78141;SDS011;67393;52.620;13.482;2024-02-14T13:45:40;10.65;;;5.30;;
78141;SDS011;67393;52.620;13.482;2024-02-14T13:50:33;9.70;;;5.70;;
78141;SDS011;67393;52.620;13.482;2024-02-14T13:52:59;5.95;;;3.97;;
78141;SDS011;67393;52.620;13.482;2024-02-14T13:55:25;14.60;;;6.25;;
78141;SDS011;67393;52.620;13.482;2024-02-14T13:57:52;6.50;;;4.78;;
78141;SDS011;67393;52.620;13.482;2024-02-14T14:00:18;7.88;;;4.63;;
78141;SDS011;67393;52.620;13.482;2024-02-14T14:02:44;7.97;;;5.65;;
78141;SDS011;67393;52.620;13.482;2024-02-14T14:05:11;7.65;;;4.63;;
78141;SDS011;67393;52.620;13.482;2024-02-14T14:07:42;11.43;;;5.38;;
78141;SDS011;67393;52.620;13.482;2024-02-14T14:10:23;7.85;;;4.82;;
78141;SDS011;67393;52.620;13.482;2024-02-14T14:12:49;10.68;;;5.45;;
78141;SDS011;67393;52.620;13.482;2024-02-14T14:15:15;8.48;;;5.05;;
78141;SDS011;67393;52.620;13.482;2024-02-14T14:17:42;11.45;;;6.07;;
78141;SDS011;67393;52.620;13.482;2024-02-14T14:20:09;13.15;;;6.30;;
78141;SDS011;67393;52.620;13.482;2024-02-14T14:22:35;10.35;;;5.65;;